sensor_id;sensor_type;location;lat;lon;timestamp;pressure;altitude;pressure_sealevel;temperature;humidity
47218;BME280;47282;53.362;-2.222;2022-07-01T00:02:13;100420.93;;;13.41;54.60
47218;BME280;47282;53.362;-2.222;2022-07-01T00:04:41;100420.17;;;13.71;54.61
47218;BME280;47282;53.362;-2.222;2022-07-01T00:07:10;100421.62;;;13.26;54.61
47218;BME280;47282;53.362;-2.222;2022-07-01T00:09:38;100421.08;;;13.49;54.72
47218;BME280;47282;53.362;-2.222;2022-07-01T00:12:07;100421.47;;;13.76;54.72
47218;BME280;47282;53.362;-2.222;2022-07-01T00:14:35;100418.83;;;13.44;54.82
47218;BME280;47282;53.362;-2.222;2022-07-01T00:17:03;100419.11;;;13.44;54.91
47218;BME280;47282;53.362;-2.222;2022-07-01T00:19:32;100421.44;;;13.22;55.11
47218;BME280;47282;53.362;-2.222;2022-07-01T00:22:00;100419.89;;;13.68;55.33
47218;BME280;47282;53.362;-2.222;2022-07-01T00:24:28;100422.63;;;13.16;55.22
47218;BME280;47282;53.362;-2.222;2022-07-01T00:26:56;100423.81;;;13.09;55.42
47218;BME280;47282;53.362;-2.222;2022-07-01T00:29:24;100424.40;;;13.24;55.49
47218;BME280;47282;53.362;-2.222;2022-07-01T00:31:53;100425.78;;;13.19;55.54
47218;BME280;47282;53.362;-2.222;2022-07-01T00:34:21;100425.97;;;12.94;55.74
47218;BME280;47282;53.362;-2.222;2022-07-01T00:36:49;100425.03;;;13.45;55.76
47218;BME280;47282;53.362;-2.222;2022-07-01T00:39:17;100424.92;;;13.00;55.69
47218;BME280;47282;53.362;-2.222;2022-07-01T00:41:45;100427.82;;;13.51;55.62
47218;BME280;47282;53.362;-2.222;2022-07-01T00:44:17;100427.11;;;13.49;55.61
47218;BME280;47282;53.362;-2.222;2022-07-01T00:46:47;100423.70;;;12.97;55.63
47218;BME280;47282;53.362;-2.222;2022-07-01T00:49:17;100423.63;;;13.46;55.78
47218;BME280;47282;53.362;-2.222;2022-07-01T00:51:46;100424.78;;;13.21;55.89
47218;BME280;47282;53.362;-2.222;2022-07-01T00:54:15;100425.38;;;13.21;55.99
47218;BME280;47282;53.362;-2.222;2022-07-01T00:56:43;100428.00;;;13.47;56.04
47218;BME280;47282;53.362;-2.222;2022-07-01T00:59:11;100427.01;;;13.18;56.20
47218;BME280;47282;53.362;-2.222;2022-07-01T01:01:40;100424.56;;;13.43;56.20
47218;BME280;47282;53.362;-2.222;2022-07-01T01:04:09;100423.15;;;13.14;56.21
47218;BME280;47282;53.362;-2.222;2022-07-01T01:06:37;100421.54;;;13.37;56.09
47218;BME280;47282;53.362;-2.222;2022-07-01T01:09:05;100420.60;;;13.31;55.93
47218;BME280;47282;53.362;-2.222;2022-07-01T01:11:34;100417.63;;;13.23;55.86
47218;BME280;47282;53.362;-2.222;2022-07-01T01:14:02;100417.45;;;13.12;56.01
47218;BME280;47282;53.362;-2.222;2022-07-01T01:16:30;100413.04;;;12.50;56.11
47218;BME280;47282;53.362;-2.222;2022-07-01T01:18:58;100410.28;;;12.87;56.27
47218;BME280;47282;53.362;-2.222;2022-07-01T01:21:26;100407.87;;;12.47;56.49
47218;BME280;47282;53.362;-2.222;2022-07-01T01:23:54;100410.16;;;12.64;56.66
47218;BME280;47282;53.362;-2.222;2022-07-01T01:26:23;100409.88;;;12.57;56.80
47218;BME280;47282;53.362;-2.222;2022-07-01T01:28:51;100412.87;;;12.57;57.02
47218;BME280;47282;53.362;-2.222;2022-07-01T01:31:27;100413.94;;;12.61;57.13
47218;BME280;47282;53.362;-2.222;2022-07-01T01:33:56;100412.98;;;12.67;57.24
47218;BME280;47282;53.362;-2.222;2022-07-01T01:36:25;100411.61;;;12.74;57.16
47218;BME280;47282;53.362;-2.222;2022-07-01T01:38:53;100407.36;;;12.77;57.07
47218;BME280;47282;53.362;-2.222;2022-07-01T01:41:21;100406.18;;;12.30;57.14
47218;BME280;47282;53.362;-2.222;2022-07-01T01:43:49;100408.74;;;12.78;57.00
47218;BME280;47282;53.362;-2.222;2022-07-01T01:46:17;100409.06;;;12.45;56.99
47218;BME280;47282;53.362;-2.222;2022-07-01T01:48:46;100409.42;;;12.64;57.03
47218;BME280;47282;53.362;-2.222;2022-07-01T01:51:14;100408.39;;;12.57;57.23
47218;BME280;47282;53.362;-2.222;2022-07-01T01:53:42;100405.75;;;12.53;57.31
47218;BME280;47282;53.362;-2.222;2022-07-01T01:56:10;100407.15;;;12.49;57.41
47218;BME280;47282;53.362;-2.222;2022-07-01T01:58:38;100407.92;;;12.46;57.52
47218;BME280;47282;53.362;-2.222;2022-07-01T02:01:06;100407.23;;;12.43;57.59
47218;BME280;47282;53.362;-2.222;2022-07-01T02:03:34;100408.75;;;12.40;57.75
47218;BME280;47282;53.362;-2.222;2022-07-01T02:06:03;100405.98;;;12.61;57.75
47218;BME280;47282;53.362;-2.222;2022-07-01T02:08:31;100404.59;;;12.36;57.78
47218;BME280;47282;53.362;-2.222;2022-07-01T02:10:59;100400.35;;;12.55;57.71
47218;BME280;47282;53.362;-2.222;2022-07-01T02:13:28;100401.21;;;12.49;57.68
47218;BME280;47282;53.362;-2.222;2022-07-01T02:15:56;100404.22;;;12.20;57.85
47218;BME280;47282;53.362;-2.222;2022-07-01T02:18:24;100405.39;;;12.56;57.94
47218;BME280;47282;53.362;-2.222;2022-07-01T02:20:53;100405.23;;;12.03;58.04
47218;BME280;47282;53.362;-2.222;2022-07-01T02:23:22;100406.07;;;11.92;58.20
47218;BME280;47282;53.362;-2.222;2022-07-01T02:25:50;100403.83;;;12.03;58.33
47218;BME280;47282;53.362;-2.222;2022-07-01T02:28:18;100404.36;;;11.72;58.50
47218;BME280;47282;53.362;-2.222;2022-07-01T02:30:47;100406.86;;;11.86;58.59
47218;BME280;47282;53.362;-2.222;2022-07-01T02:33:15;100409.02;;;11.99;58.66
47218;BME280;47282;53.362;-2.222;2022-07-01T02:35:43;100407.35;;;11.69;58.84
47218;BME280;47282;53.362;-2.222;2022-07-01T02:38:11;100404.87;;;11.68;59.00
47218;BME280;47282;53.362;-2.222;2022-07-01T02:40:40;100405.13;;;11.75;59.02
47218;BME280;47282;53.362;-2.222;2022-07-01T02:43:08;100403.49;;;12.04;59.02
47218;BME280;47282;53.362;-2.222;2022-07-01T02:45:36;100403.87;;;11.87;58.92
47218;BME280;47282;53.362;-2.222;2022-07-01T02:48:05;100398.90;;;11.90;58.96
47218;BME280;47282;53.362;-2.222;2022-07-01T02:50:33;100403.11;;;11.70;59.02
47218;BME280;47282;53.362;-2.222;2022-07-01T02:53:01;100403.16;;;11.95;58.99
47218;BME280;47282;53.362;-2.222;2022-07-01T02:55:29;100405.39;;;11.96;58.95
47218;BME280;47282;53.362;-2.222;2022-07-01T02:57:58;100407.39;;;11.95;58.99
47218;BME280;47282;53.362;-2.222;2022-07-01T03:00:26;100409.96;;;11.99;59.11
47218;BME280;47282;53.362;-2.222;2022-07-01T03:02:54;100412.63;;;11.82;59.26
47218;BME280;47282;53.362;-2.222;2022-07-01T03:05:22;100411.98;;;12.11;59.27
47218;BME280;47282;53.362;-2.222;2022-07-01T03:07:50;100414.78;;;12.17;59.31
47218;BME280;47282;53.362;-2.222;2022-07-01T03:10:19;100413.37;;;12.46;59.28
47218;BME280;47282;53.362;-2.222;2022-07-01T03:12:47;100412.82;;;12.29;59.29
47218;BME280;47282;53.362;-2.222;2022-07-01T03:15:15;100412.43;;;12.30;59.19
47218;BME280;47282;53.362;-2.222;2022-07-01T03:17:45;100413.95;;;12.29;59.27
47218;BME280;47282;53.362;-2.222;2022-07-01T03:20:15;100418.20;;;12.51;59.30
47218;BME280;47282;53.362;-2.222;2022-07-01T03:22:46;100422.11;;;12.27;59.33
47218;BME280;47282;53.362;-2.222;2022-07-01T03:25:14;100423.78;;;12.04;59.35
47218;BME280;47282;53.362;-2.222;2022-07-01T03:27:42;100423.76;;;12.02;59.42
47218;BME280;47282;53.362;-2.222;2022-07-01T03:30:11;100424.07;;;12.25;59.50
47218;BME280;47282;53.362;-2.222;2022-07-01T03:32:40;100426.37;;;12.03;59.56
47218;BME280;47282;53.362;-2.222;2022-07-01T03:35:09;100424.46;;;12.27;59.61
47218;BME280;47282;53.362;-2.222;2022-07-01T03:37:37;100424.89;;;12.28;59.48
47218;BME280;47282;53.362;-2.222;2022-07-01T03:40:06;100429.23;;;12.04;59.49
47218;BME280;47282;53.362;-2.222;2022-07-01T03:42:35;100429.22;;;12.05;59.60
47218;BME280;47282;53.362;-2.222;2022-07-01T03:45:03;100431.16;;;12.07;59.55
47218;BME280;47282;53.362;-2.222;2022-07-01T03:47:31;100435.25;;;12.07;59.49
47218;BME280;47282;53.362;-2.222;2022-07-01T03:50:00;100433.98;;;12.29;59.64
47218;BME280;47282;53.362;-2.222;2022-07-01T03:52:28;100439.46;;;12.30;59.65
47218;BME280;47282;53.362;-2.222;2022-07-01T03:54:56;100438.21;;;12.30;59.68
47218;BME280;47282;53.362;-2.222;2022-07-01T03:57:24;100443.56;;;12.30;59.67
47218;BME280;47282;53.362;-2.222;2022-07-01T03:59:52;100445.63;;;12.33;59.64
47218;BME280;47282;53.362;-2.222;2022-07-01T04:02:20;100447.51;;;12.33;59.57
47218;BME280;47282;53.362;-2.222;2022-07-01T04:04:48;100452.46;;;12.35;59.68
47218;BME280;47282;53.362;-2.222;2022-07-01T04:07:16;100452.72;;;12.59;59.75
47218;BME280;47282;53.362;-2.222;2022-07-01T04:09:45;100453.77;;;12.18;59.73
47218;BME280;47282;53.362;-2.222;2022-07-01T04:12:13;100455.34;;;12.19;59.69
47218;BME280;47282;53.362;-2.222;2022-07-01T04:14:42;100457.58;;;12.67;59.63
47218;BME280;47282;53.362;-2.222;2022-07-01T04:17:10;100459.30;;;12.46;59.73
47218;BME280;47282;53.362;-2.222;2022-07-01T04:19:38;100457.18;;;12.27;59.76
47218;BME280;47282;53.362;-2.222;2022-07-01T04:22:06;100461.04;;;12.32;59.69
47218;BME280;47282;53.362;-2.222;2022-07-01T04:24:35;100462.71;;;12.36;59.59
47218;BME280;47282;53.362;-2.222;2022-07-01T04:27:03;100465.32;;;12.40;59.52
47218;BME280;47282;53.362;-2.222;2022-07-01T04:29:31;100469.49;;;12.47;59.52
47218;BME280;47282;53.362;-2.222;2022-07-01T04:32:00;100471.68;;;12.26;59.43
47218;BME280;47282;53.362;-2.222;2022-07-01T04:34:28;100472.59;;;12.59;59.26
47218;BME280;47282;53.362;-2.222;2022-07-01T04:36:56;100476.59;;;12.39;59.18
47218;BME280;47282;53.362;-2.222;2022-07-01T04:39:24;100475.90;;;12.70;59.07
47218;BME280;47282;53.362;-2.222;2022-07-01T04:41:52;100474.54;;;12.76;59.00
47218;BME280;47282;53.362;-2.222;2022-07-01T04:44:20;100474.35;;;12.82;58.87
47218;BME280;47282;53.362;-2.222;2022-07-01T04:46:49;100475.23;;;12.87;58.81
47218;BME280;47282;53.362;-2.222;2022-07-01T04:49:17;100475.08;;;12.93;58.73
47218;BME280;47282;53.362;-2.222;2022-07-01T04:51:45;100478.98;;;12.99;58.67
47218;BME280;47282;53.362;-2.222;2022-07-01T04:54:14;100478.15;;;13.10;58.66
47218;BME280;47282;53.362;-2.222;2022-07-01T04:56:42;100477.11;;;13.19;58.58
47218;BME280;47282;53.362;-2.222;2022-07-01T04:59:10;100476.81;;;13.01;58.49
47218;BME280;47282;53.362;-2.222;2022-07-01T05:01:39;100479.01;;;12.89;58.31
47218;BME280;47282;53.362;-2.222;2022-07-01T05:04:07;100480.98;;;13.44;58.19
47218;BME280;47282;53.362;-2.222;2022-07-01T05:06:36;100483.57;;;13.01;58.12
47218;BME280;47282;53.362;-2.222;2022-07-01T05:09:04;100484.43;;;13.29;57.95
47218;BME280;47282;53.362;-2.222;2022-07-01T05:11:32;100486.69;;;13.11;57.97
47218;BME280;47282;53.362;-2.222;2022-07-01T05:14:01;100485.75;;;13.38;57.92
47218;BME280;47282;53.362;-2.222;2022-07-01T05:16:29;100488.22;;;13.71;57.76
47218;BME280;47282;53.362;-2.222;2022-07-01T05:18:57;100488.52;;;13.27;57.71
47218;BME280;47282;53.362;-2.222;2022-07-01T05:21:25;100486.73;;;13.35;57.67
47218;BME280;47282;53.362;-2.222;2022-07-01T05:23:53;100488.51;;;13.45;57.53
47218;BME280;47282;53.362;-2.222;2022-07-01T05:26:22;100490.68;;;13.56;57.40
47218;BME280;47282;53.362;-2.222;2022-07-01T05:28:50;100491.64;;;13.69;57.25
47218;BME280;47282;53.362;-2.222;2022-07-01T05:31:18;100490.97;;;13.82;57.10
47218;BME280;47282;53.362;-2.222;2022-07-01T05:33:47;100487.52;;;13.97;56.83
47218;BME280;47282;53.362;-2.222;2022-07-01T05:36:16;100490.08;;;14.37;56.63
47218;BME280;47282;53.362;-2.222;2022-07-01T05:38:44;100486.51;;;14.08;56.34
47218;BME280;47282;53.362;-2.222;2022-07-01T05:41:12;100488.55;;;14.28;56.11
47218;BME280;47282;53.362;-2.222;2022-07-01T05:43:40;100481.22;;;14.48;55.90
47218;BME280;47282;53.362;-2.222;2022-07-01T05:46:09;100481.39;;;14.71;55.55
47218;BME280;47282;53.362;-2.222;2022-07-01T05:48:37;100484.35;;;14.93;55.35
47218;BME280;47282;53.362;-2.222;2022-07-01T05:51:05;100484.37;;;14.66;55.17
47218;BME280;47282;53.362;-2.222;2022-07-01T05:53:34;100485.11;;;15.25;54.97
47218;BME280;47282;53.362;-2.222;2022-07-01T05:56:02;100482.16;;;15.15;54.87
47218;BME280;47282;53.362;-2.222;2022-07-01T05:58:30;100476.48;;;15.23;54.72
47218;BME280;47282;53.362;-2.222;2022-07-01T06:00:58;100479.10;;;15.37;54.59
47218;BME280;47282;53.362;-2.222;2022-07-01T06:03:26;100483.82;;;15.51;54.37
47218;BME280;47282;53.362;-2.222;2022-07-01T06:05:54;100483.03;;;15.60;54.20
47218;BME280;47282;53.362;-2.222;2022-07-01T06:08:23;100481.04;;;15.70;54.05
47218;BME280;47282;53.362;-2.222;2022-07-01T06:10:51;100483.89;;;15.71;53.91
47218;BME280;47282;53.362;-2.222;2022-07-01T06:13:19;100481.14;;;16.22;53.57
47218;BME280;47282;53.362;-2.222;2022-07-01T06:15:47;100483.91;;;16.46;53.33
47218;BME280;47282;53.362;-2.222;2022-07-01T06:18:16;100485.99;;;16.38;53.14
47218;BME280;47282;53.362;-2.222;2022-07-01T06:20:44;100489.78;;;16.76;53.08
47218;BME280;47282;53.362;-2.222;2022-07-01T06:23:12;100492.17;;;16.45;52.89
47218;BME280;47282;53.362;-2.222;2022-07-01T06:25:40;100492.00;;;16.60;52.69
47218;BME280;47282;53.362;-2.222;2022-07-01T06:28:08;100492.10;;;16.73;52.49
47218;BME280;47282;53.362;-2.222;2022-07-01T06:30:36;100486.41;;;16.68;52.19
47218;BME280;47282;53.362;-2.222;2022-07-01T06:33:04;100484.27;;;16.89;51.97
47218;BME280;47282;53.362;-2.222;2022-07-01T06:35:34;100486.73;;;17.42;51.60
47218;BME280;47282;53.362;-2.222;2022-07-01T06:38:02;100481.08;;;17.50;51.21
47218;BME280;47282;53.362;-2.222;2022-07-01T06:40:30;100474.07;;;17.57;50.83
47218;BME280;47282;53.362;-2.222;2022-07-01T06:42:58;100473.42;;;17.87;50.42
47218;BME280;47282;53.362;-2.222;2022-07-01T06:45:27;100470.21;;;18.17;49.96
47218;BME280;47282;53.362;-2.222;2022-07-01T06:47:55;100467.97;;;18.45;49.61
47218;BME280;47282;53.362;-2.222;2022-07-01T06:50:23;100473.08;;;18.87;49.20
47218;BME280;47282;53.362;-2.222;2022-07-01T06:52:51;100475.68;;;19.01;48.83
47218;BME280;47282;53.362;-2.222;2022-07-01T06:55:20;100476.11;;;19.15;48.45
47218;BME280;47282;53.362;-2.222;2022-07-01T06:57:48;100476.65;;;19.24;48.11
47218;BME280;47282;53.362;-2.222;2022-07-01T07:01:12;100482.65;;;20.06;47.49
47218;BME280;47282;53.362;-2.222;2022-07-01T07:03:40;100484.68;;;20.23;47.25
47218;BME280;47282;53.362;-2.222;2022-07-01T07:06:08;100484.63;;;19.81;47.18
47218;BME280;47282;53.362;-2.222;2022-07-01T07:08:36;100491.76;;;20.37;46.79
47218;BME280;47282;53.362;-2.222;2022-07-01T07:11:05;100495.65;;;21.09;45.40
47218;BME280;47282;53.362;-2.222;2022-07-01T07:13:33;100491.23;;;23.00;42.86
47218;BME280;47282;53.362;-2.222;2022-07-01T07:16:01;100495.73;;;24.21;41.35
47218;BME280;47282;53.362;-2.222;2022-07-01T07:18:29;100496.12;;;24.66;40.46
47218;BME280;47282;53.362;-2.222;2022-07-01T07:20:57;100494.95;;;24.49;40.47
47218;BME280;47282;53.362;-2.222;2022-07-01T07:23:25;100500.24;;;24.07;40.57
47218;BME280;47282;53.362;-2.222;2022-07-01T07:25:54;100502.51;;;24.72;40.00
47218;BME280;47282;53.362;-2.222;2022-07-01T07:28:22;100506.58;;;25.81;38.29
47218;BME280;47282;53.362;-2.222;2022-07-01T07:30:50;100511.48;;;26.18;37.98
47218;BME280;47282;53.362;-2.222;2022-07-01T07:33:19;100507.77;;;26.10;38.01
47218;BME280;47282;53.362;-2.222;2022-07-01T07:35:47;100501.63;;;24.62;39.35
47218;BME280;47282;53.362;-2.222;2022-07-01T07:38:15;100498.05;;;23.73;40.39
47218;BME280;47282;53.362;-2.222;2022-07-01T07:40:43;100494.26;;;23.23;41.20
47218;BME280;47282;53.362;-2.222;2022-07-01T07:43:11;100494.26;;;22.59;41.82
47218;BME280;47282;53.362;-2.222;2022-07-01T07:45:40;100489.51;;;22.48;42.07
47218;BME280;47282;53.362;-2.222;2022-07-01T07:48:08;100494.82;;;22.63;42.07
47218;BME280;47282;53.362;-2.222;2022-07-01T07:50:36;100493.81;;;22.79;41.69
47218;BME280;47282;53.362;-2.222;2022-07-01T07:53:04;100494.62;;;22.94;41.10
47218;BME280;47282;53.362;-2.222;2022-07-01T07:55:33;100493.48;;;23.30;40.35
47218;BME280;47282;53.362;-2.222;2022-07-01T07:58:01;100494.62;;;25.00;38.52
47218;BME280;47282;53.362;-2.222;2022-07-01T08:00:29;100496.65;;;26.13;37.05
47218;BME280;47282;53.362;-2.222;2022-07-01T08:02:57;100494.59;;;27.33;35.28
47218;BME280;47282;53.362;-2.222;2022-07-01T08:05:25;100494.65;;;29.47;33.00
47218;BME280;47282;53.362;-2.222;2022-07-01T08:07:53;100499.83;;;33.24;29.19
47218;BME280;47282;53.362;-2.222;2022-07-01T08:10:22;100501.89;;;35.25;27.38
47218;BME280;47282;53.362;-2.222;2022-07-01T08:12:50;100501.02;;;34.35;28.09
47218;BME280;47282;53.362;-2.222;2022-07-01T08:15:18;100496.44;;;32.42;29.70
47218;BME280;47282;53.362;-2.222;2022-07-01T08:17:46;100497.52;;;31.92;30.47
47218;BME280;47282;53.362;-2.222;2022-07-01T08:20:14;100498.25;;;31.02;30.94
47218;BME280;47282;53.362;-2.222;2022-07-01T08:22:42;100501.58;;;30.19;31.20
47218;BME280;47282;53.362;-2.222;2022-07-01T08:25:11;100499.21;;;29.76;31.59
47218;BME280;47282;53.362;-2.222;2022-07-01T08:27:39;100499.05;;;29.22;31.88
47218;BME280;47282;53.362;-2.222;2022-07-01T08:30:08;100504.82;;;28.97;31.71
47218;BME280;47282;53.362;-2.222;2022-07-01T08:32:37;100502.67;;;28.91;31.78
47218;BME280;47282;53.362;-2.222;2022-07-01T08:35:05;100501.87;;;28.60;31.75
47218;BME280;47282;53.362;-2.222;2022-07-01T08:37:39;100501.97;;;28.36;31.80
47218;BME280;47282;53.362;-2.222;2022-07-01T08:40:08;100506.16;;;28.00;31.95
47218;BME280;47282;53.362;-2.222;2022-07-01T08:42:36;100503.39;;;27.99;32.22
47218;BME280;47282;53.362;-2.222;2022-07-01T08:45:05;100507.66;;;27.94;32.03
47218;BME280;47282;53.362;-2.222;2022-07-01T08:47:33;100508.21;;;28.05;31.69
47218;BME280;47282;53.362;-2.222;2022-07-01T08:50:02;100509.39;;;28.78;30.84
47218;BME280;47282;53.362;-2.222;2022-07-01T08:52:30;100506.00;;;29.88;29.69
47218;BME280;47282;53.362;-2.222;2022-07-01T08:54:58;100508.16;;;31.48;28.21
47218;BME280;47282;53.362;-2.222;2022-07-01T08:57:26;100507.79;;;33.48;26.31
47218;BME280;47282;53.362;-2.222;2022-07-01T09:00:04;100510.46;;;34.51;25.17
47218;BME280;47282;53.362;-2.222;2022-07-01T09:03:04;100512.06;;;35.93;24.31
47218;BME280;47282;53.362;-2.222;2022-07-01T09:05:33;100509.68;;;37.02;23.30
47218;BME280;47282;53.362;-2.222;2022-07-01T09:08:02;100504.49;;;33.47;25.86
47218;BME280;47282;53.362;-2.222;2022-07-01T09:10:32;100507.62;;;31.97;27.10
47218;BME280;47282;53.362;-2.222;2022-07-01T09:13:04;100510.29;;;30.59;28.14
47218;BME280;47282;53.362;-2.222;2022-07-01T09:15:34;100507.15;;;29.90;29.16
47218;BME280;47282;53.362;-2.222;2022-07-01T09:18:04;100507.80;;;30.30;29.09
47218;BME280;47282;53.362;-2.222;2022-07-01T09:20:35;100505.92;;;30.29;29.02
47218;BME280;47282;53.362;-2.222;2022-07-01T09:23:05;100514.52;;;32.67;26.55
47218;BME280;47282;53.362;-2.222;2022-07-01T09:25:36;100511.38;;;34.26;25.08
47218;BME280;47282;53.362;-2.222;2022-07-01T09:28:06;100518.50;;;36.52;23.09
47218;BME280;47282;53.362;-2.222;2022-07-01T09:30:36;100515.40;;;36.32;23.04
47218;BME280;47282;53.362;-2.222;2022-07-01T09:33:07;100509.87;;;36.98;22.32
47218;BME280;47282;53.362;-2.222;2022-07-01T09:35:36;100511.53;;;36.67;22.91
47218;BME280;47282;53.362;-2.222;2022-07-01T09:38:04;100510.31;;;37.89;22.01
47218;BME280;47282;53.362;-2.222;2022-07-01T09:40:51;100508.54;;;37.32;21.91
47218;BME280;47282;53.362;-2.222;2022-07-01T09:43:21;100504.34;;;37.75;21.84
47218;BME280;47282;53.362;-2.222;2022-07-01T09:45:53;100511.78;;;38.91;21.00
47218;BME280;47282;53.362;-2.222;2022-07-01T09:48:24;100506.01;;;37.13;21.58
47218;BME280;47282;53.362;-2.222;2022-07-01T09:50:53;100510.77;;;35.72;21.94
47218;BME280;47282;53.362;-2.222;2022-07-01T09:53:22;100510.65;;;34.40;23.08
47218;BME280;47282;53.362;-2.222;2022-07-01T09:55:50;100514.18;;;33.14;23.95
47218;BME280;47282;53.362;-2.222;2022-07-01T09:58:18;100514.07;;;31.95;25.09
47218;BME280;47282;53.362;-2.222;2022-07-01T10:00:47;100515.71;;;30.52;25.96
47218;BME280;47282;53.362;-2.222;2022-07-01T10:03:18;100519.80;;;30.21;26.09
47218;BME280;47282;53.362;-2.222;2022-07-01T10:05:49;100521.26;;;29.57;26.52
47218;BME280;47282;53.362;-2.222;2022-07-01T10:08:46;100522.15;;;29.10;26.97
47218;BME280;47282;53.362;-2.222;2022-07-01T10:11:42;100524.43;;;28.84;27.45
47218;BME280;47282;53.362;-2.222;2022-07-01T10:14:15;100528.83;;;28.96;27.50
47218;BME280;47282;53.362;-2.222;2022-07-01T10:16:46;100525.10;;;28.88;27.34
47218;BME280;47282;53.362;-2.222;2022-07-01T10:19:25;100526.27;;;29.54;26.91
47218;BME280;47282;53.362;-2.222;2022-07-01T10:21:55;100526.66;;;30.25;26.24
47218;BME280;47282;53.362;-2.222;2022-07-01T10:24:24;100520.14;;;29.78;26.52
47218;BME280;47282;53.362;-2.222;2022-07-01T10:26:58;100525.08;;;29.85;26.74
47218;BME280;47282;53.362;-2.222;2022-07-01T10:29:30;100521.88;;;30.77;26.03
47218;BME280;47282;53.362;-2.222;2022-07-01T10:32:09;100519.37;;;31.28;25.49
47218;BME280;47282;53.362;-2.222;2022-07-01T10:34:39;100523.95;;;32.09;24.61
47218;BME280;47282;53.362;-2.222;2022-07-01T10:37:09;100523.61;;;32.15;24.30
47218;BME280;47282;53.362;-2.222;2022-07-01T10:40:10;100523.67;;;32.96;23.29
47218;BME280;47282;53.362;-2.222;2022-07-01T10:42:57;100524.03;;;32.89;23.29
47218;BME280;47282;53.362;-2.222;2022-07-01T10:45:26;100525.17;;;34.12;22.66
47218;BME280;47282;53.362;-2.222;2022-07-01T10:48:18;100520.86;;;32.69;23.58
47218;BME280;47282;53.362;-2.222;2022-07-01T10:50:47;100524.21;;;31.49;24.37
47218;BME280;47282;53.362;-2.222;2022-07-01T10:53:16;100522.69;;;31.70;23.82
47218;BME280;47282;53.362;-2.222;2022-07-01T10:55:46;100521.96;;;31.62;24.27
47218;BME280;47282;53.362;-2.222;2022-07-01T10:58:15;100523.69;;;32.95;23.01
47218;BME280;47282;53.362;-2.222;2022-07-01T11:00:45;100518.57;;;32.55;23.18
47218;BME280;47282;53.362;-2.222;2022-07-01T11:03:18;100519.42;;;31.81;23.33
47218;BME280;47282;53.362;-2.222;2022-07-01T11:05:50;100525.91;;;34.50;21.17
47218;BME280;47282;53.362;-2.222;2022-07-01T11:08:18;100512.81;;;32.67;22.20
47218;BME280;47282;53.362;-2.222;2022-07-01T11:10:51;100514.44;;;31.68;23.13
47218;BME280;47282;53.362;-2.222;2022-07-01T11:13:26;100518.40;;;30.85;23.44
47218;BME280;47282;53.362;-2.222;2022-07-01T11:15:55;100517.08;;;30.34;23.82
47218;BME280;47282;53.362;-2.222;2022-07-01T11:18:24;100520.57;;;29.68;24.57
47218;BME280;47282;53.362;-2.222;2022-07-01T11:20:52;100517.72;;;28.56;25.43
47218;BME280;47282;53.362;-2.222;2022-07-01T11:23:21;100520.84;;;27.50;26.07
47218;BME280;47282;53.362;-2.222;2022-07-01T11:25:49;100521.59;;;26.32;27.10
47218;BME280;47282;53.362;-2.222;2022-07-01T11:28:18;100521.43;;;25.73;27.88
47218;BME280;47282;53.362;-2.222;2022-07-01T11:30:46;100518.51;;;25.34;28.35
47218;BME280;47282;53.362;-2.222;2022-07-01T11:33:14;100517.68;;;25.13;28.65
47218;BME280;47282;53.362;-2.222;2022-07-01T11:35:43;100514.33;;;25.33;28.48
47218;BME280;47282;53.362;-2.222;2022-07-01T11:38:13;100518.06;;;26.00;28.13
47218;BME280;47282;53.362;-2.222;2022-07-01T11:40:43;100512.74;;;26.43;27.73
47218;BME280;47282;53.362;-2.222;2022-07-01T11:43:19;100513.04;;;26.27;27.96
47218;BME280;47282;53.362;-2.222;2022-07-01T11:45:47;100509.27;;;25.78;28.16
47218;BME280;47282;53.362;-2.222;2022-07-01T11:48:38;100510.34;;;26.24;27.88
47218;BME280;47282;53.362;-2.222;2022-07-01T11:51:09;100508.77;;;27.04;27.53
47218;BME280;47282;53.362;-2.222;2022-07-01T11:53:39;100507.44;;;26.76;28.23
47218;BME280;47282;53.362;-2.222;2022-07-01T11:56:08;100506.91;;;25.54;29.23
47218;BME280;47282;53.362;-2.222;2022-07-01T11:58:45;100506.33;;;25.01;30.00
47218;BME280;47282;53.362;-2.222;2022-07-01T12:01:24;100510.07;;;24.47;30.67
47218;BME280;47282;53.362;-2.222;2022-07-01T12:03:53;100506.99;;;24.20;31.16
47218;BME280;47282;53.362;-2.222;2022-07-01T12:06:22;100503.39;;;23.39;31.54
47218;BME280;47282;53.362;-2.222;2022-07-01T12:08:51;100512.98;;;23.76;31.65
47218;BME280;47282;53.362;-2.222;2022-07-01T12:11:21;100512.70;;;23.94;31.29
47218;BME280;47282;53.362;-2.222;2022-07-01T12:13:50;100508.64;;;24.50;31.11
47218;BME280;47282;53.362;-2.222;2022-07-01T12:16:19;100513.27;;;24.91;30.74
47218;BME280;47282;53.362;-2.222;2022-07-01T12:18:53;100518.33;;;24.96;30.50
47218;BME280;47282;53.362;-2.222;2022-07-01T12:21:23;100524.63;;;25.31;30.28
47218;BME280;47282;53.362;-2.222;2022-07-01T12:24:10;100533.42;;;25.64;30.30
47218;BME280;47282;53.362;-2.222;2022-07-01T12:26:49;100533.27;;;25.68;30.14
47218;BME280;47282;53.362;-2.222;2022-07-01T12:29:18;100535.65;;;25.82;30.07
47218;BME280;47282;53.362;-2.222;2022-07-01T12:31:56;100539.86;;;25.95;29.99
47218;BME280;47282;53.362;-2.222;2022-07-01T12:34:38;100537.90;;;26.14;29.94
47218;BME280;47282;53.362;-2.222;2022-07-01T12:37:11;100538.44;;;26.37;29.88
47218;BME280;47282;53.362;-2.222;2022-07-01T12:39:44;100540.81;;;26.47;29.98
47218;BME280;47282;53.362;-2.222;2022-07-01T12:42:23;100535.94;;;26.10;30.04
47218;BME280;47282;53.362;-2.222;2022-07-01T12:44:52;100533.04;;;25.67;30.79
47218;BME280;47282;53.362;-2.222;2022-07-01T12:47:24;100534.78;;;24.36;31.70
47218;BME280;47282;53.362;-2.222;2022-07-01T12:50:09;100534.90;;;23.95;32.17
47218;BME280;47282;53.362;-2.222;2022-07-01T12:52:39;100533.66;;;24.15;31.72
47218;BME280;47282;53.362;-2.222;2022-07-01T12:55:16;100529.58;;;24.31;31.74